Delmont, South Dakota
Current Conditions -  °F | °C
As of 9:53 AM on Friday 31 Oct 2014 (Local Time) from KMHE Reporting Station
Clear Clear  
Wind Chill: 21°   Ceiling: Unl
Heat Index: 21°   Visibility: 10mi
Dew Point: 18°   Wind: 3mph
Humidity: 88%   Direction: NA
Pressure: 30.61"   Gusts: NA
Location:  43.27°N, 98.16°W
Report Text: KMHE 311453Z AUTO VRB03KT 10SM CLR M06/M08 A3061 RMK AO2 SLP386 T10611078 53005
Loading
Personal Weather Stations






























Interactive Weather Map
Tropical Storm Tracking
New forecast layout! Learn more

10-Day Weather Forecast

Advertisements
Track Severe Weather on mobile